Time;durP1;ratioP1;P1;durP2;ratioP2;P2;SDS_P1;SDS_P2;PMS_P1;PMS_P2;Temp;Humidity;BMP_temperature;BMP_pressure;BME280_temperature;BME280_humidity;BME280_pressure;Samples;Min_cycle;Max_cycle;Signal;HPM_P1;HPM_P2
2023/03/13 00:01:13;;;;;;;23.42;7.65;;;;;;;;;;5048898;28;20336;-62
2023/03/13 00:03:40;;;;;;;18.25;7.53;;;;;;;;;;5047238;28;20074;-61
2023/03/13 00:06:06;;;;;;;29.35;8.23;;;;;;;;;;5048648;28;20494;-61
2023/03/13 00:08:32;;;;;;;22.42;8.20;;;;;;;;;;5028676;28;20049;-62
2023/03/13 00:11:02;;;;;;;18.33;6.97;;;;;;;;;;5048801;28;20037;-62
2023/03/13 00:13:28;;;;;;;23.25;7.20;;;;;;;;;;5047418;28;20125;-61
2023/03/13 00:16:01;;;;;;;25.67;8.27;;;;;;;;;;5030779;28;20037;-62
2023/03/13 00:18:27;;;;;;;23.17;7.97;;;;;;;;;;5044645;28;20399;-61
2023/03/13 00:21:07;;;;;;;19.10;8.02;;;;;;;;;;5030461;28;20132;-61
2023/03/13 00:23:33;;;;;;;17.85;7.70;;;;;;;;;;5046013;28;20045;-61
2023/03/13 00:26:00;;;;;;;23.13;7.55;;;;;;;;;;5047463;28;20118;-61
2023/03/13 00:28:28;;;;;;;23.15;7.90;;;;;;;;;;5048774;28;20444;-61
2023/03/13 00:31:23;;;;;;;25.23;8.98;;;;;;;;;;5046800;28;20047;-61
2023/03/13 00:33:51;;;;;;;21.02;9.23;;;;;;;;;;5031702;28;20093;-62
2023/03/13 00:36:18;;;;;;;31.08;8.52;;;;;;;;;;5046989;28;20041;-61
2023/03/13 00:38:44;;;;;;;24.50;8.23;;;;;;;;;;5042793;28;20073;-61
2023/03/13 00:41:15;;;;;;;31.38;8.95;;;;;;;;;;5044265;28;20096;-62
2023/03/13 00:43:42;;;;;;;24.30;8.27;;;;;;;;;;5046654;28;20037;-61
2023/03/13 00:46:09;;;;;;;26.70;8.93;;;;;;;;;;5044386;28;20069;-62
2023/03/13 00:48:35;;;;;;;24.83;9.02;;;;;;;;;;5011769;28;20044;-62
2023/03/13 00:51:02;;;;;;;29.85;8.98;;;;;;;;;;5041893;28;20037;-61
2023/03/13 00:53:28;;;;;;;30.23;8.57;;;;;;;;;;5045042;28;20037;-62
2023/03/13 00:55:56;;;;;;;28.63;8.65;;;;;;;;;;5047028;28;20152;-62
2023/03/13 00:58:22;;;;;;;25.15;9.25;;;;;;;;;;5027848;28;20053;-61
2023/03/13 01:00:49;;;;;;;21.30;8.85;;;;;;;;;;5047329;28;20041;-61
2023/03/13 01:03:15;;;;;;;23.38;7.75;;;;;;;;;;5054765;28;20041;-62
2023/03/13 01:05:41;;;;;;;21.48;8.43;;;;;;;;;;5027349;28;20075;-61
2023/03/13 01:08:08;;;;;;;31.63;9.95;;;;;;;;;;5045679;28;20048;-61
2023/03/13 01:10:34;;;;;;;26.98;9.73;;;;;;;;;;5012472;28;20063;-62
2023/03/13 01:13:03;;;;;;;20.55;8.25;;;;;;;;;;5047345;28;20098;-61
2023/03/13 01:15:29;;;;;;;27.70;9.70;;;;;;;;;;5048410;28;20045;-61
2023/03/13 01:17:56;;;;;;;32.00;8.98;;;;;;;;;;5028263;28;20366;-61
2023/03/13 01:20:22;;;;;;;25.02;8.77;;;;;;;;;;5047220;28;20257;-62
2023/03/13 01:22:48;;;;;;;24.05;9.63;;;;;;;;;;5046319;28;20056;-61
2023/03/13 01:25:15;;;;;;;20.92;7.57;;;;;;;;;;5046047;28;20041;-62
2023/03/13 01:27:41;;;;;;;30.75;8.27;;;;;;;;;;5040088;28;20037;-61
2023/03/13 01:30:07;;;;;;;30.92;9.52;;;;;;;;;;5048320;28;20477;-62
2023/03/13 01:32:34;;;;;;;27.77;7.57;;;;;;;;;;5047945;28;20326;-61
2023/03/13 01:35:00;;;;;;;36.35;10.77;;;;;;;;;;5050179;28;20069;-61
2023/03/13 01:37:26;;;;;;;20.63;7.97;;;;;;;;;;5051353;28;20124;-61
2023/03/13 01:39:52;;;;;;;30.33;8.90;;;;;;;;;;5028092;28;20278;-62
2023/03/13 01:42:18;;;;;;;21.45;7.65;;;;;;;;;;5045985;28;20479;-62
2023/03/13 01:44:54;;;;;;;24.35;8.30;;;;;;;;;;5050288;28;20141;-62
2023/03/13 01:47:20;;;;;;;25.73;8.70;;;;;;;;;;5048249;28;20053;-61
2023/03/13 01:49:47;;;;;;;30.58;8.88;;;;;;;;;;5043468;28;20344;-62
2023/03/13 01:52:19;;;;;;;20.40;9.25;;;;;;;;;;5035531;28;20050;-62
2023/03/13 01:54:48;;;;;;;22.40;8.03;;;;;;;;;;5049592;28;20129;-62
2023/03/13 01:57:19;;;;;;;31.98;8.95;;;8.40;99.90;;;;;;5030241;28;20102;-61
2023/03/13 01:59:48;;;;;;;31.55;10.35;;;;;;;;;;5043007;28;20086;-61
2023/03/13 02:02:15;;;;;;;21.15;9.52;;;;;;;;;;5048735;28;20124;-61
2023/03/13 02:04:49;;;;;;;27.23;9.25;;;;;;;;;;5043595;28;20398;-61
2023/03/13 02:07:22;;;;;;;20.02;8.02;;;;;;;;;;5049573;28;20025;-62
2023/03/13 02:09:50;;;;;;;20.73;9.27;;;;;;;;;;5048713;28;20391;-61
2023/03/13 02:12:29;;;;;;;20.48;8.15;;;;;;;;;;5031290;28;20044;-61
2023/03/13 02:14:56;;;;;;;24.08;8.68;;;;;;;;;;5023945;28;20084;-61
2023/03/13 02:17:22;;;;;;;26.75;8.25;;;;;;;;;;5050921;28;20037;-62
2023/03/13 02:19:50;;;;;;;22.90;9.77;;;;;;;;;;5048885;28;20049;-61
2023/03/13 02:22:25;;;;;;;17.95;8.23;;;;;;;;;;5050070;28;20037;-62
2023/03/13 02:25:07;;;;;;;17.75;7.82;;;;;;;;;;5034367;28;20392;-61
2023/03/13 02:27:33;;;;;;;16.20;7.32;;;;;;;;;;5043808;28;20032;-62
2023/03/13 02:29:59;;;;;;;19.48;8.52;;;;;;;;;;5030926;28;20089;-62
2023/03/13 02:32:26;;;;;;;13.50;6.88;;;;;;;;;;5050181;28;20072;-62
2023/03/13 02:34:55;;;;;;;17.50;6.57;;;;;;;;;;5037457;28;20127;-61
2023/03/13 02:37:23;;;;;;;13.95;6.35;;;;;;;;;;5026987;28;20073;-62
2023/03/13 02:39:49;;;;;;;12.50;7.05;;;;;;;;;;5044740;28;20040;-62
2023/03/13 02:42:17;;;;;;;13.85;5.47;;;;;;;;;;5045683;28;20036;-62
2023/03/13 02:44:45;;;;;;;15.48;7.22;;;;;;;;;;5041736;28;20120;-62
2023/03/13 02:47:12;;;;;;;13.95;6.43;;;;;;;;;;5049835;28;20037;-62
2023/03/13 02:49:38;;;;;;;18.40;6.75;;;;;;;;;;5028208;28;20117;-61
2023/03/13 02:52:24;;;;;;;14.48;6.13;;;;;;;;;;5049288;28;20040;-62
2023/03/13 02:54:52;;;;;;;10.13;5.90;;;;;;;;;;5040855;28;20041;-62
2023/03/13 02:57:18;;;;;;;11.20;5.57;;;;;;;;;;5049586;28;20136;-61
2023/03/13 02:59:44;;;;;;;14.63;6.13;;;;;;;;;;5049308;28;20041;-62
2023/03/13 03:02:10;;;;;;;12.15;5.95;;;;;;;;;;5040167;28;20086;-61
2023/03/13 03:04:37;;;;;;;11.70;5.88;;;;;;;;;;5039935;28;20190;-62
2023/03/13 03:07:03;;;;;;;10.52;7.25;;;;;;;;;;5056363;28;20499;-62
2023/03/13 03:09:29;;;;;;;8.27;4.90;;;;;;;;;;5041895;28;20045;-61
2023/03/13 03:11:55;;;;;;;9.60;5.53;;;8.70;99.90;;;;;;5040312;28;20135;-62
2023/03/13 03:14:21;;;;;;;10.95;5.70;;;8.90;99.90;;;;;;5031238;28;20041;-62
2023/03/13 03:16:47;;;;;;;13.80;5.57;;;8.90;99.90;;;;;;5044940;28;20064;-62
2023/03/13 03:19:13;;;;;;;12.93;5.38;;;9.00;99.90;;;;;;5047365;28;20041;-62
2023/03/13 03:21:39;;;;;;;8.82;5.53;;;9.00;99.90;;;;;;5048651;28;20095;-62
2023/03/13 03:24:05;;;;;;;9.43;4.95;;;9.00;99.90;;;;;;5047050;28;20138;-61
2023/03/13 03:26:31;;;;;;;9.00;5.43;;;9.00;99.90;;;;;;5029803;28;20032;-61
2023/03/13 03:28:57;;;;;;;8.88;5.35;;;9.00;99.90;;;;;;5019809;28;20049;-61
2023/03/13 03:31:23;;;;;;;6.82;4.93;;;9.00;99.90;;;;;;5028019;28;20435;-61
2023/03/13 03:33:49;;;;;;;8.30;4.65;;;9.10;99.90;;;;;;4994532;28;20038;-61
2023/03/13 03:36:18;;;;;;;8.23;5.70;;;9.10;99.90;;;;;;5030679;28;20033;-62
2023/03/13 03:38:45;;;;;;;9.77;5.38;;;9.10;99.90;;;;;;5024233;28;20044;-61
2023/03/13 03:41:12;;;;;;;7.18;5.25;;;;;;;;;;5000081;28;20053;-61
2023/03/13 03:43:39;;;;;;;10.43;5.07;;;;;;;;;;5014997;28;20044;-61
2023/03/13 03:46:05;;;;;;;6.95;4.60;;;;;;;;;;5028466;28;20132;-61
2023/03/13 03:48:31;;;;;;;6.75;5.15;;;;;;;;;;5007754;28;20042;-61
2023/03/13 03:50:57;;;;;;;7.57;5.30;;;;;;;;;;5030327;28;20038;-61
2023/03/13 03:53:24;;;;;;;13.23;5.90;;;;;;;;;;5009087;28;20045;-61
2023/03/13 03:55:50;;;;;;;10.27;5.90;;;9.10;99.90;;;;;;5030611;28;20037;-61
2023/03/13 03:58:16;;;;;;;7.13;5.82;;;9.30;99.90;;;;;;5029472;28;20321;-62
2023/03/13 04:00:46;;;;;;;8.90;6.28;;;;;;;;;;5028506;28;20034;-62
2023/03/13 04:03:13;;;;;;;9.48;6.90;;;;;;;;;;5020691;28;20049;-62
2023/03/13 04:05:39;;;;;;;13.82;8.65;;;;;;;;;;4994320;28;20140;-62
2023/03/13 04:08:05;;;;;;;15.60;9.35;;;;;;;;;;5027018;28;20072;-61
2023/03/13 04:10:31;;;;;;;11.35;8.82;;;;;;;;;;5028342;28;20042;-62
2023/03/13 04:12:58;;;;;;;14.88;10.93;;;;;;;;;;5008795;28;20045;-61
2023/03/13 04:15:24;;;;;;;14.35;9.95;;;;;;;;;;5020886;28;20539;-61
2023/03/13 04:17:50;;;;;;;22.13;12.05;;;;;;;;;;5012244;28;20457;-62
2023/03/13 04:20:16;;;;;;;17.98;11.90;;;;;;;;;;5021922;28;20038;-61
2023/03/13 04:22:43;;;;;;;19.67;9.15;;;;;;;;;;5025935;28;20074;-61
2023/03/13 04:25:09;;;;;;;15.05;10.73;;;;;;;;;;5003599;28;20049;-62
2023/03/13 04:27:36;;;;;;;21.02;12.02;;;;;;;;;;5027517;28;20396;-62
2023/03/13 04:30:02;;;;;;;20.23;10.38;;;;;;;;;;5024899;28;20148;-61
2023/03/13 04:32:28;;;;;;;20.08;11.30;;;;;;;;;;5022660;28;20081;-61
2023/03/13 04:34:54;;;;;;;18.55;12.13;;;;;;;;;;5046967;28;20514;-62
2023/03/13 04:37:20;;;;;;;18.02;10.70;;;;;;;;;;5058986;28;20136;-61
2023/03/13 04:39:46;;;;;;;19.80;10.70;;;;;;;;;;5028173;28;20098;-62
2023/03/13 04:42:13;;;;;;;18.08;10.13;;;;;;;;;;5045821;28;20043;-62
2023/03/13 04:44:39;;;;;;;19.48;11.65;;;;;;;;;;5026179;28;20038;-62
2023/03/13 04:47:05;;;;;;;19.13;10.32;;;9.30;99.90;;;;;;5047605;28;20032;-62
2023/03/13 04:49:31;;;;;;;22.70;11.10;;;;;;;;;;5024767;28;20514;-62
2023/03/13 04:51:57;;;;;;;20.98;9.95;;;;;;;;;;5012051;28;20047;-61
2023/03/13 04:54:23;;;;;;;20.70;10.50;;;;;;;;;;5044761;28;20051;-62
2023/03/13 04:56:50;;;;;;;26.50;10.40;;;;;;;;;;5040123;28;20036;-63
2023/03/13 04:59:16;;;;;;;20.80;9.73;;;;;;;;;;5046471;28;20033;-62
2023/03/13 05:01:42;;;;;;;15.57;8.05;;;;;;;;;;5026211;28;20096;-62
2023/03/13 05:04:09;;;;;;;23.42;9.73;;;;;;;;;;5027568;28;20029;-62
2023/03/13 05:06:35;;;;;;;22.55;9.80;;;;;;;;;;5023143;28;20045;-63
2023/03/13 05:09:02;;;;;;;17.67;9.15;;;;;;;;;;5043190;28;20140;-62
2023/03/13 05:11:28;;;;;;;23.77;9.05;;;;;;;;;;5038475;28;20040;-62
2023/03/13 05:13:54;;;;;;;16.98;8.43;;;;;;;;;;5043606;28;20082;-62
2023/03/13 05:16:21;;;;;;;18.85;8.23;;;;;;;;;;5043946;28;20128;-62
2023/03/13 05:18:47;;;;;;;11.32;6.82;;;;;;;;;;5044607;28;20557;-62
2023/03/13 05:21:13;;;;;;;14.85;6.70;;;;;;;;;;5041691;28;20060;-62
2023/03/13 05:23:39;;;;;;;18.25;6.65;;;;;;;;;;5037322;28;20059;-63
2023/03/13 05:26:24;;;;;;;11.25;6.28;;;;;;;;;;5042284;28;20101;-62
2023/03/13 05:28:50;;;;;;;13.90;6.18;;;;;;;;;;5045605;28;20128;-62
2023/03/13 05:31:15;;;;;;;16.88;5.40;;;9.90;99.90;;;;;;5042357;28;20041;-62
2023/03/13 05:33:41;;;;;;;11.50;5.57;;;10.80;99.90;;;;;;5042555;28;20450;-62
2023/03/13 05:36:07;;;;;;;13.48;6.22;;;10.80;99.90;;;;;;5039967;28;20270;-62
2023/03/13 05:38:33;;;;;;;15.82;6.72;;;10.80;99.90;;;;;;5040401;28;20071;-62
2023/03/13 05:40:59;;;;;;;18.85;6.90;;;10.80;99.90;;;;;;5043021;28;20592;-63
2023/03/13 05:43:24;;;;;;;21.63;7.57;;;10.80;99.90;;;;;;5025086;28;20049;-62
2023/03/13 05:45:50;;;;;;;13.25;5.88;;;10.80;99.90;;;;;;5040978;28;20049;-62
2023/03/13 05:48:16;;;;;;;17.40;7.63;;;10.80;99.90;;;;;;5016154;28;20034;-62
2023/03/13 05:50:42;;;;;;;15.93;7.30;;;10.90;99.90;;;;;;5040126;28;20453;-62
2023/03/13 05:53:08;;;;;;;14.18;7.82;;;10.90;99.90;;;;;;5024570;28;20376;-62
2023/03/13 05:55:34;;;;;;;13.80;7.10;;;10.90;99.90;;;;;;5024139;28;20072;-62
2023/03/13 05:57:59;;;;;;;19.77;8.10;;;10.90;99.90;;;;;;5024749;28;20123;-62
2023/03/13 06:00:25;;;;;;;24.33;9.68;;;10.90;99.90;;;;;;5042135;28;20534;-62
2023/03/13 06:02:51;;;;;;;21.35;8.35;;;10.90;99.90;;;;;;5042568;28;20041;-62
2023/03/13 06:05:17;;;;;;;18.08;7.90;;;10.90;99.90;;;;;;5039961;28;20416;-62
2023/03/13 06:07:43;;;;;;;25.27;9.23;;;10.90;99.90;;;;;;5023901;28;20390;-62
2023/03/13 06:10:10;;;;;;;20.50;7.97;;;10.90;99.90;;;;;;5042036;28;20048;-62
2023/03/13 06:12:36;;;;;;;19.95;8.63;;;10.90;99.90;;;;;;5047787;28;20725;-62
2023/03/13 06:15:03;;;;;;;16.48;7.72;;;11.00;99.90;;;;;;5044587;28;20033;-62
2023/03/13 06:17:28;;;;;;;19.38;7.80;;;11.00;99.90;;;;;;5033083;28;20041;-62
2023/03/13 06:19:54;;;;;;;16.65;7.40;;;11.00;99.90;;;;;;5031871;28;20099;-62
2023/03/13 06:22:20;;;;;;;17.25;7.25;;;11.00;99.90;;;;;;5048851;28;20115;-63
2023/03/13 06:24:48;;;;;;;16.20;7.75;;;11.00;99.90;;;;;;5022854;28;20041;-63
2023/03/13 06:27:14;;;;;;;16.63;6.25;;;11.00;99.90;;;;;;5018020;28;20040;-63
2023/03/13 06:29:40;;;;;;;15.88;5.85;;;11.00;99.90;;;;;;5042582;28;20427;-62
2023/03/13 06:32:06;;;;;;;14.55;6.18;;;11.10;99.90;;;;;;5045259;28;20037;-62
2023/03/13 06:34:32;;;;;;;13.82;5.43;;;11.10;99.90;;;;;;5045101;28;20060;-62
2023/03/13 06:36:59;;;;;;;15.65;5.55;;;;;;;;;;5048764;28;20107;-63
2023/03/13 06:39:25;;;;;;;18.85;5.43;;;;;;;;;;5040493;28;20053;-63
2023/03/13 06:41:51;;;;;;;23.58;6.43;;;;;;;;;;5050880;28;20479;-62
2023/03/13 06:44:17;;;;;;;13.93;5.65;;;;;;;;;;5026836;28;20036;-62
2023/03/13 06:46:43;;;;;;;13.70;5.25;;;;;;;;;;5049232;28;20032;-63
2023/03/13 06:49:10;;;;;;;12.15;6.65;;;;;;;;;;5048294;28;20029;-62
2023/03/13 06:51:36;;;;;;;10.25;5.78;;;;;;;;;;5032342;28;20045;-63
2023/03/13 06:54:02;;;;;;;16.15;6.80;;;;;;;;;;5038946;28;20044;-63
2023/03/13 06:56:29;;;;;;;10.57;5.38;;;;;;;;;;5043770;28;20099;-63
2023/03/13 06:58:55;;;;;;;17.48;6.40;;;;;;;;;;5048425;28;20491;-63
2023/03/13 07:01:21;;;;;;;13.70;5.63;;;;;;;;;;5050091;28;20445;-63
2023/03/13 07:03:48;;;;;;;18.77;6.38;;;;;;;;;;5042945;28;20253;-63
2023/03/13 07:06:15;;;;;;;18.95;7.18;;;;;;;;;;5045093;28;20317;-62
2023/03/13 07:08:42;;;;;;;16.80;6.18;;;;;;;;;;5042924;28;20041;-62
2023/03/13 07:11:09;;;;;;;14.05;5.65;;;;;;;;;;5041176;28;20029;-63
2023/03/13 07:13:35;;;;;;;21.92;6.13;;;;;;;;;;5029407;28;20036;-63
2023/03/13 07:16:03;;;;;;;17.38;7.28;;;;;;;;;;5021933;28;20180;-63
2023/03/13 07:18:29;;;;;;;16.15;5.80;;;;;;;;;;5023365;28;20507;-62
2023/03/13 07:20:57;;;;;;;15.13;6.00;;;;;;;;;;5043398;28;20124;-63
2023/03/13 07:23:24;;;;;;;13.27;6.97;;;;;;;;;;5018429;28;20048;-62
2023/03/13 07:25:54;;;;;;;16.40;7.13;;;;;;;;;;5044711;28;20060;-63
2023/03/13 07:28:20;;;;;;;15.30;6.72;;;;;;;;;;5022766;28;20069;-63
2023/03/13 07:30:46;;;;;;;11.73;5.55;;;;;;;;;;5038091;28;20315;-62
2023/03/13 07:33:12;;;;;;;16.80;6.45;;;;;;;;;;5026035;28;20619;-63
2023/03/13 07:35:39;;;;;;;23.08;5.85;;;;;;;;;;5026861;28;20124;-64
2023/03/13 07:38:05;;;;;;;15.90;6.15;;;;;;;;;;5025843;28;20091;-63
2023/03/13 07:40:31;;;;;;;17.20;6.13;;;;;;;;;;5045524;28;20041;-63
2023/03/13 07:42:57;;;;;;;21.38;5.00;;;;;;;;;;5043424;28;20414;-63
2023/03/13 07:45:23;;;;;;;12.35;5.63;;;;;;;;;;5043294;28;20032;-64
2023/03/13 07:47:49;;;;;;;13.10;5.03;;;;;;;;;;5047489;28;20033;-63
2023/03/13 07:50:15;;;;;;;13.15;6.20;;;;;;;;;;5027737;28;20550;-64
2023/03/13 07:52:42;;;;;;;14.95;5.13;;;;;;;;;;5045407;28;20122;-64
2023/03/13 07:55:08;;;;;;;15.88;5.35;;;;;;;;;;5045983;28;20124;-64
2023/03/13 07:57:34;;;;;;;9.63;4.95;;;;;;;;;;5003405;28;20044;-64
2023/03/13 08:00:00;;;;;;;15.10;5.40;;;;;;;;;;5043537;28;20087;-64
2023/03/13 08:02:26;;;;;;;17.05;5.32;;;;;;;;;;5030794;28;20041;-64
2023/03/13 08:04:53;;;;;;;10.88;4.95;;;;;;;;;;5025034;28;20049;-64
2023/03/13 08:07:19;;;;;;;16.80;5.10;;;;;;;;;;5048659;28;20039;-64
2023/03/13 08:09:45;;;;;;;12.30;5.05;;;;;;;;;;5047563;28;20076;-64
2023/03/13 08:12:11;;;;;;;16.58;4.82;;;;;;;;;;5048516;28;20040;-64
2023/03/13 08:14:37;;;;;;;11.32;4.40;;;;;;;;;;5030605;28;20041;-64
2023/03/13 08:17:03;;;;;;;13.68;5.15;;;;;;;;;;5047273;28;20037;-64
2023/03/13 08:19:30;;;;;;;11.15;4.75;;;;;;;;;;5030206;28;20116;-64
2023/03/13 08:21:56;;;;;;;14.30;5.40;;;;;;;;;;5010622;28;20168;-64
2023/03/13 08:24:22;;;;;;;12.50;5.43;;;;;;;;;;5046286;28;20037;-64
2023/03/13 08:26:48;;;;;;;11.25;5.28;;;;;;;;;;5044224;28;20044;-63
2023/03/13 08:29:14;;;;;;;13.77;5.57;;;;;;;;;;5044206;28;20049;-65
2023/03/13 08:31:46;;;;;;;12.40;5.03;;;;;;;;;;5040056;28;20104;-60
2023/03/13 08:34:13;;;;;;;23.85;6.05;;;;;;;;;;5045585;28;20045;-60
2023/03/13 08:36:40;;;;;;;23.20;5.18;;;;;;;;;;5045358;28;20089;-60
2023/03/13 08:39:07;;;;;;;11.52;4.93;;;;;;;;;;5044822;28;20372;-60
2023/03/13 08:41:35;;;;;;;10.82;4.40;;;11.10;99.90;;;;;;5038528;28;20068;-60
2023/03/13 08:44:02;;;;;;;11.45;4.05;;;;;;;;;;5047049;28;20045;-60
2023/03/13 08:46:32;;;;;;;15.85;4.22;;;;;;;;;;5049435;28;20033;-60
2023/03/13 08:48:58;;;;;;;9.65;4.07;;;;;;;;;;5047386;28;20098;-60
2023/03/13 08:51:25;;;;;;;10.40;4.10;;;;;;;;;;5048576;28;20068;-60
2023/03/13 08:53:52;;;;;;;11.10;4.43;;;;;;;;;;5047631;28;20052;-59
2023/03/13 08:56:19;;;;;;;15.73;4.18;;;;;;;;;;5037645;28;20056;-62
2023/03/13 08:58:49;;;;;;;9.15;3.53;;;;;;;;;;5046084;28;20199;-62
2023/03/13 09:01:15;;;;;;;6.20;3.03;;;;;;;;;;5037550;28;20132;-62
2023/03/13 09:03:42;;;;;;;9.07;4.72;;;;;;;;;;5007588;28;20044;-62
2023/03/13 09:06:09;;;;;;;8.00;3.92;;;;;;;;;;5046873;28;20450;-62
2023/03/13 09:08:36;;;;;;;13.27;4.25;;;;;;;;;;5040965;28;20048;-62
2023/03/13 09:11:12;;;;;;;11.07;4.07;;;;;;;;;;5043277;28;20079;-62
2023/03/13 09:13:39;;;;;;;9.05;3.40;;;;;;;;;;5045753;28;20040;-62
2023/03/13 09:16:06;;;;;;;10.52;4.07;;;;;;;;;;5047164;28;20094;-62
2023/03/13 09:18:32;;;;;;;14.80;3.95;;;;;;;;;;5027439;28;20095;-62
2023/03/13 09:20:58;;;;;;;12.68;4.63;;;;;;;;;;5046072;28;20089;-62
2023/03/13 09:23:24;;;;;;;12.07;5.32;;;;;;;;;;5042169;28;20052;-62
2023/03/13 09:25:55;;;;;;;13.68;4.78;;;;;;;;;;5040274;28;20032;-62
2023/03/13 09:28:21;;;;;;;13.55;5.60;;;;;;;;;;5043279;28;20502;-62
2023/03/13 09:30:50;;;;;;;12.95;4.43;;;;;;;;;;5042601;28;20045;-62
2023/03/13 09:33:17;;;;;;;13.77;4.82;;;;;;;;;;5026227;28;20037;-62
2023/03/13 09:35:46;;;;;;;19.15;5.32;;;;;;;;;;5037606;28;20484;-62
2023/03/13 09:38:12;;;;;;;18.75;5.10;;;;;;;;;;5026570;28;20041;-62
2023/03/13 09:40:41;;;;;;;17.63;4.32;;;;;;;;;;5022690;28;20037;-62
2023/03/13 09:43:18;;;;;;;18.00;5.38;;;;;;;;;;5041511;28;20041;-62
2023/03/13 09:45:47;;;;;;;11.27;4.47;;;;;;;;;;5042748;28;20455;-62
2023/03/13 09:48:13;;;;;;;18.80;5.20;;;;;;;;;;5040862;28;20363;-62
2023/03/13 09:50:45;;;;;;;16.83;5.13;;;;;;;;;;5048905;28;20462;-62
2023/03/13 09:53:17;;;;;;;11.25;4.32;;;;;;;;;;5046435;28;20065;-62
2023/03/13 09:55:44;;;;;;;15.02;4.50;;;;;;;;;;5049348;28;20041;-62
2023/03/13 09:58:17;;;;;;;10.52;3.55;;;;;;;;;;5047639;28;20055;-62
2023/03/13 10:01:16;;;;;;;20.58;5.25;;;;;;;;;;5036773;28;20108;-61
2023/03/13 10:03:54;;;;;;;18.38;5.35;;;;;;;;;;4986837;28;20079;-62
2023/03/13 10:06:21;;;;;;;9.55;4.20;;;;;;;;;;5042368;28;20048;-62
2023/03/13 10:08:47;;;;;;;11.30;4.93;;;;;;;;;;5038109;28;20037;-62
2023/03/13 10:11:25;;;;;;;26.52;6.35;;;;;;;;;;5027333;28;20043;-62
2023/03/13 10:14:11;;;;;;;14.70;5.25;;;;;;;;;;5040403;28;20045;-63
2023/03/13 10:16:46;;;;;;;12.27;5.15;;;;;;;;;;5029380;28;20123;-62
2023/03/13 10:19:17;;;;;;;21.75;6.25;;;;;;;;;;5047828;28;20041;-62
2023/03/13 10:21:47;;;;;;;20.08;5.75;;;;;;;;;;5046806;28;20041;-63
2023/03/13 10:24:19;;;;;;;18.48;6.18;;;;;;;;;;5039860;28;20072;-62
2023/03/13 10:26:45;;;;;;;15.27;4.72;;;;;;;;;;5027456;28;20479;-62
2023/03/13 10:29:22;;;;;;;18.83;5.47;;;;;;;;;;5046996;28;20510;-62
2023/03/13 10:31:59;;;;;;;18.70;5.38;;;;;;;;;;5042185;28;20556;-62
2023/03/13 10:34:26;;;;;;;9.52;4.45;;;;;;;;;;5041649;28;20076;-63
2023/03/13 10:36:59;;;;;;;20.77;5.75;;;;;;;;;;5034432;28;20076;-62
2023/03/13 10:39:27;;;;;;;16.80;5.45;;;;;;;;;;5039205;28;20075;-63
2023/03/13 10:41:58;;;;;;;17.85;5.82;;;;;;;;;;5048564;28;20040;-63
2023/03/13 10:44:29;;;;;;;24.45;6.25;;;;;;;;;;5044727;28;20457;-65
2023/03/13 10:46:57;;;;;;;15.20;5.78;;;;;;;;;;5044432;28;20029;-65
2023/03/13 10:49:24;;;;;;;16.27;4.78;;;;;;;;;;5047890;28;20055;-65
2023/03/13 10:51:51;;;;;;;14.20;5.75;;;;;;;;;;4998980;28;20086;-66
2023/03/13 10:54:20;;;;;;;21.85;5.93;;;;;;;;;;5038544;28;20041;-65
2023/03/13 10:56:47;;;;;;;10.20;4.85;;;;;;;;;;5041426;28;20634;-64
2023/03/13 10:59:20;;;;;;;13.15;4.63;;;;;;;;;;5046668;28;20086;-64
2023/03/13 11:01:46;;;;;;;;;;;;;;;;;;5031952;28;20040;-66
2023/03/13 11:04:31;;;;;;;16.20;5.55;;;;;;;;;;5043984;28;19925;-65
2023/03/13 11:07:14;;;;;;;12.27;4.65;;;;;;;;;;5037659;28;20558;-65
2023/03/13 11:09:40;;;;;;;14.70;6.60;;;;;;;;;;5044767;28;20041;-65
2023/03/13 11:12:20;;;;;;;16.52;4.43;;;;;;;;;;5018490;28;20491;-65
2023/03/13 11:14:46;;;;;;;12.13;5.10;;;;;;;;;;5040863;28;20119;-65
2023/03/13 11:17:23;;;;;;;15.40;4.78;;;;;;;;;;5045921;28;20426;-65
2023/03/13 11:19:54;;;;;;;21.88;6.03;;;;;;;;;;5036528;28;20360;-65
2023/03/13 11:22:28;;;;;;;14.82;4.80;;;;;;;;;;5041642;28;20492;-65
2023/03/13 11:24:54;;;;;;;15.48;4.75;;;;;;;;;;5037713;28;20040;-65
2023/03/13 11:27:27;;;;;;;13.00;5.13;;;;;;;;;;5050348;28;20075;-65
2023/03/13 11:29:56;;;;;;;13.93;4.53;;;;;;;;;;5028444;28;20084;-64
2023/03/13 11:32:26;;;;;;;12.75;5.07;;;;;;;;;;5038093;28;20049;-64
2023/03/13 11:34:56;;;;;;;13.20;5.13;;;;;;;;;;5037351;28;20110;-66
2023/03/13 11:37:22;;;;;;;23.00;6.30;;;;;;;;;;5022337;28;20059;-65
2023/03/13 11:40:07;;;;;;;17.80;5.50;;;;;;;;;;5044653;28;20064;-66
2023/03/13 11:42:36;;;;;;;20.10;6.97;;;;;;;;;;5045965;28;20045;-65
2023/03/13 11:45:05;;;;;;;17.70;5.25;;;;;;;;;;5048374;28;20562;-68
2023/03/13 11:47:43;;;;;;;22.20;6.38;;;;;;;;;;5027753;28;20056;-69
2023/03/13 11:50:25;;;;;;;23.45;5.78;;;;;;;;;;5029470;28;20131;-68
2023/03/13 11:52:57;;;;;;;18.23;6.20;;;;;;;;;;5046069;28;20033;-67
2023/03/13 11:55:23;;;;;;;13.57;4.43;;;;;;;;;;5047987;28;20040;-67
2023/03/13 11:58:09;;;;;;;16.55;5.97;;;;;;;;;;5022707;28;20083;-68
2023/03/13 12:00:37;;;;;;;18.98;6.63;;;;;;;;;;5025358;28;20083;-68
2023/03/13 12:03:26;;;;;;;16.75;5.40;;;;;;;;;;5036912;28;20130;-68
2023/03/13 12:05:59;;;;;;;12.82;5.28;;;;;;;;;;5019320;28;20044;-66
2023/03/13 12:08:25;;;;;;;15.55;5.13;;;;;;;;;;5023705;28;20072;-68
2023/03/13 12:11:02;;;;;;;22.75;5.88;;;;;;;;;;5043414;28;20136;-68
2023/03/13 12:13:31;;;;;;;15.55;5.07;;;;;;;;;;5044940;28;20494;-67
2023/03/13 12:16:00;;;;;;;25.85;6.32;;;;;;;;;;5041708;28;20041;-67
2023/03/13 12:18:26;;;;;;;17.70;5.47;;;;;;;;;;5026013;28;20045;-68
2023/03/13 12:20:56;;;;;;;17.15;5.80;;;;;;;;;;5046790;28;20111;-67
2023/03/13 12:23:41;;;;;;;21.60;6.53;;;;;;;;;;5027125;28;20041;-67
2023/03/13 12:26:12;;;;;;;26.40;6.72;;;;;;;;;;5033230;28;20464;-65
2023/03/13 12:47:57;;;;;;;27.80;6.32;;;13.20;99.90;;;;;;5013710;28;20396;-71
2023/03/13 12:50:46;;;;;;;;;;;13.20;99.90;;;;;;5018990;28;20049;-72
2023/03/13 12:53:47;;;;;;;29.60;7.15;;;13.10;99.90;;;;;;4984312;28;20280;-72
2023/03/13 12:56:22;;;;;;;13.90;6.22;;;13.10;99.90;;;;;;5023938;28;20391;-72
2023/03/13 12:58:57;;;;;;;18.83;6.15;;;13.20;99.90;;;;;;5025443;28;20045;-72
2023/03/13 13:01:44;;;;;;;17.17;6.35;;;13.30;99.90;;;;;;4991718;28;20049;-72
2023/03/13 13:04:17;;;;;;;17.60;6.18;;;13.40;99.90;;;;;;5013352;28;20045;-72
2023/03/13 13:07:06;;;;;;;21.15;6.00;;;13.50;99.90;;;;;;5016346;28;20038;-72
2023/03/13 13:09:38;;;;;;;17.52;5.70;;;13.60;99.90;;;;;;5022407;28;20632;-71
2023/03/13 13:12:20;;;;;;;22.77;5.88;;;13.60;99.90;;;;;;5027160;28;20072;-71
2023/03/13 13:14:49;;;;;;;17.83;6.90;;;13.70;99.90;;;;;;5026178;28;20419;-72
2023/03/13 13:17:46;;;;;;;29.85;8.10;;;13.80;99.90;;;;;;5014732;28;20537;-72
2023/03/13 13:20:32;;;;;;;17.30;4.95;;;13.80;99.90;;;;;;5022669;28;20071;-72
2023/03/13 14:07:40;;;;;;;16.65;6.45;;;;;;;;;;5027826;28;20055;-65
2023/03/13 14:10:26;;;;;;;19.98;7.35;;;;;;;;;;5037836;28;20084;-66
2023/03/13 14:12:53;;;;;;;23.90;6.93;;;;;;;;;;5041847;28;20041;-65
2023/03/13 14:15:19;;;;;;;18.00;7.03;;;;;;;;;;5045937;28;20048;-65
2023/03/13 14:17:50;;;;;;;25.83;7.15;;;;;;;;;;5046396;28;20068;-65
2023/03/13 14:20:18;;;;;;;18.48;6.10;;;;;;;;;;5045238;28;20263;-66
2023/03/13 14:22:48;;;;;;;17.55;6.05;;;;;;;;;;5041323;28;20044;-66
2023/03/13 14:25:14;;;;;;;19.52;7.72;;;;;;;;;;5043940;28;20049;-66
2023/03/13 14:27:45;;;;;;;21.65;7.20;;;;;;;;;;5030219;28;20068;-65
2023/03/13 14:30:11;;;;;;;20.77;6.95;;;;;;;;;;5047449;28;20039;-66
2023/03/13 14:32:38;;;;;;;22.17;6.75;;;;;;;;;;5029201;28;20041;-65
2023/03/13 14:35:05;;;;;;;21.02;6.57;;;;;;;;;;5045635;28;20059;-65
2023/03/13 14:37:36;;;;;;;27.65;7.72;;;;;;;;;;5027049;28;20041;-65
2023/03/13 14:40:10;;;;;;;17.95;6.95;;;;;;;;;;5047535;28;20518;-65
2023/03/13 14:42:47;;;;;;;21.02;8.57;;;;;;;;;;5040435;28;20560;-65
2023/03/13 14:45:23;;;;;;;29.58;8.57;;;13.90;99.90;;;;;;5036021;28;20484;-66
2023/03/13 14:47:50;;;;;;;18.08;7.22;;;13.20;99.90;;;;;;5029555;28;20567;-66
2023/03/13 14:50:17;;;;;;;19.25;6.78;;;13.20;99.90;;;;;;5043958;28;20036;-66
2023/03/13 14:52:52;;;;;;;18.00;7.13;;;13.10;99.90;;;;;;5055681;28;20041;-66
2023/03/13 14:55:21;;;;;;;20.10;8.18;;;13.10;99.90;;;;;;5008855;28;20045;-66
2023/03/13 14:58:00;;;;;;;22.27;7.68;;;13.10;99.90;;;;;;5046529;28;20474;-66
2023/03/13 15:00:34;;;;;;;22.45;7.90;;;13.00;99.90;;;;;;5015036;28;20041;-66
2023/03/13 15:03:15;;;;;;;24.80;7.00;;;13.00;99.90;;;;;;5033938;28;20038;-66
2023/03/13 15:06:06;;;;;;;17.95;6.65;;;13.00;99.90;;;;;;5046363;28;20037;-65
2023/03/13 15:08:40;;;;;;;22.17;6.90;;;12.90;99.90;;;;;;5044762;28;20598;-64
2023/03/13 15:11:19;;;;;;;19.33;8.13;;;12.90;99.90;;;;;;5037843;28;20043;-65
2023/03/13 15:13:45;;;;;;;28.10;7.22;;;12.90;99.90;;;;;;5038322;28;20407;-65
2023/03/13 15:16:22;;;;;;;24.55;9.32;;;12.80;99.90;;;;;;5040754;28;20039;-65
2023/03/13 15:18:49;;;;;;;20.67;8.32;;;12.70;99.90;;;;;;5030034;28;20048;-65